Time;durP1;ratioP1;P1;durP2;ratioP2;P2;SDS_P1;SDS_P2;PMS_P1;PMS_P2;Temp;Humidity;BMP_temperature;BMP_pressure;BME280_temperature;BME280_humidity;BME280_pressure;Samples;Min_cycle;Max_cycle;Signal;HPM_P1;HPM_P2
2020/12/14 00:02:55;;;;;;;22.93;14.20;;;;;;;2.92;69.70;98888.01;2153491;83;21224;-80
2020/12/14 00:05:56;;;;;;;24.93;14.87;;;;;;;2.63;70.49;98897.48;2153477;83;21145;-79
2020/12/14 00:08:57;;;;;;;26.20;11.40;;;;;;;2.39;70.95;98898.13;2153907;83;21287;-81
2020/12/14 00:11:58;;;;;;;21.03;13.40;;;;;;;2.67;79.93;98910.97;2153614;82;21240;-79
2020/12/14 00:14:59;;;;;;;24.90;14.00;;;;;;;4.89;72.04;98901.75;2153583;83;21110;-79
2020/12/14 00:18:00;;;;;;;24.17;14.40;;;;;;;4.24;69.06;98895.46;2153550;83;21239;-78
2020/12/14 00:21:01;;;;;;;23.80;14.80;;;;;;;3.58;69.04;98901.95;2153815;83;21133;-80
2020/12/14 00:24:02;;;;;;;20.83;13.77;;;;;;;3.11;69.50;98904.73;2153821;83;21244;-79
2020/12/14 00:27:03;;;;;;;22.40;14.60;;;;;;;2.81;70.13;98910.75;2149180;83;21145;-79
2020/12/14 00:30:04;;;;;;;25.40;15.67;;;;;;;2.55;70.53;98914.73;2147973;82;21483;-79
2020/12/14 00:33:05;;;;;;;26.47;15.30;;;;;;;2.42;70.99;98915.01;2148176;83;21093;-79
2020/12/14 00:36:06;;;;;;;28.13;15.70;;;;;;;2.31;71.36;98923.06;2147864;82;21145;-78
2020/12/14 00:39:07;;;;;;;20.30;13.97;;;;;;;2.22;71.58;98926.98;2148012;83;21114;-79
2020/12/14 00:42:08;;;;;;;23.80;14.60;;;;;;;2.17;71.93;98927.59;2148028;83;21267;-79
2020/12/14 00:45:10;;;;;;;23.87;14.90;;;;;;;2.09;72.02;98928.52;2148014;82;21118;-79
2020/12/14 00:48:11;;;;;;;27.10;15.60;;;;;;;2.14;73.09;98928.73;2147644;82;21114;-79
2020/12/14 00:51:12;;;;;;;24.97;14.97;;;;;;;2.17;72.38;98935.31;2147938;83;21556;-79
2020/12/14 00:54:13;;;;;;;27.97;16.43;;;;;;;2.09;72.42;98936.66;2147959;83;21129;-79
2020/12/14 00:57:14;;;;;;;26.37;15.90;;;;;;;2.02;72.52;98939.34;2147803;83;21403;-79
2020/12/14 01:00:15;;;;;;;26.20;16.07;;;;;;;1.97;72.76;98938.66;2148022;83;21232;-79
2020/12/14 01:03:16;;;;;;;26.53;15.23;;;;;;;1.94;72.93;98948.81;2147977;83;21118;-80
2020/12/14 01:06:17;;;;;;;27.60;16.20;;;;;;;1.90;72.96;98944.81;2147714;82;21133;-79
2020/12/14 01:09:19;;;;;;;28.53;16.37;;;;;;;1.87;73.07;98935.66;2147647;83;21287;-79
2020/12/14 01:12:20;;;;;;;28.97;17.30;;;;;;;1.84;73.14;98934.63;2147979;82;21153;-80
2020/12/14 01:15:21;;;;;;;29.87;16.03;;;;;;;1.81;73.29;98941.80;2147616;82;21089;-79
2020/12/14 01:18:22;;;;;;;29.13;16.73;;;;;;;1.80;73.45;98940.03;2147776;83;21094;-79
2020/12/14 01:21:23;;;;;;;31.00;17.53;;;;;;;1.73;73.62;98945.66;2147924;82;21110;-79
2020/12/14 01:24:24;;;;;;;32.43;18.33;;;;;;;1.66;73.79;98942.32;2147613;82;21145;-79
2020/12/14 01:27:25;;;;;;;31.33;16.87;;;;;;;1.63;74.04;98937.03;2152423;82;21395;-79
2020/12/14 01:30:26;;;;;;;32.90;18.03;;;;;;;1.64;74.20;98937.50;2153706;83;21315;-79
2020/12/14 01:33:27;;;;;;;30.37;17.90;;;;;;;1.65;74.21;98949.97;2153450;83;21235;-79
2020/12/14 01:36:28;;;;;;;29.03;17.10;;;;;;;1.71;74.18;98939.97;2153434;83;21251;-79
2020/12/14 01:39:29;;;;;;;31.60;16.47;;;;;;;1.69;74.20;98939.89;2153498;82;21267;-78
2020/12/14 01:42:30;;;;;;;30.43;17.97;;;;;;;3.84;86.12;98945.18;2153624;83;21109;-78
2020/12/14 01:45:31;;;;;;;31.13;16.63;;;;;;;5.35;78.24;98938.30;2153621;83;21249;-80
2020/12/14 01:48:33;;;;;;;31.37;16.87;;;;;;;5.19;70.90;98943.74;2154058;82;21145;-78
2020/12/14 01:51:34;;;;;;;28.90;17.90;;;;;;;4.43;69.60;98941.46;2153563;83;21287;-79
2020/12/14 01:54:36;;;;;;;28.77;18.80;;;;;;;3.88;69.93;98951.34;2153885;83;21244;-79
2020/12/14 01:57:37;;;;;;;30.83;17.67;;;;;;;3.43;70.15;98953.80;2153399;83;21288;-81
2020/12/14 02:00:38;;;;;;;28.43;17.40;;;;;;;3.73;80.73;98950.73;2153707;82;21117;-79
2020/12/14 02:03:39;;;;;;;30.13;17.73;;;;;;;5.05;71.83;98945.44;2153617;83;21094;-79
2020/12/14 02:06:40;;;;;;;26.47;17.00;;;;;;;4.30;69.57;98948.25;2153500;83;21533;-79
2020/12/14 02:09:41;;;;;;;31.63;18.33;;;;;;;3.68;69.75;98947.97;2153393;83;21279;-79
2020/12/14 02:12:42;;;;;;;32.83;19.60;;;;;;;3.26;70.20;98950.04;2153381;83;21236;-78
2020/12/14 02:15:43;;;;;;;30.40;19.00;;;;;;;2.98;70.51;98964.34;2153299;83;21383;-78
2020/12/14 02:18:44;;;;;;;35.27;19.73;;;;;;;2.80;70.86;98964.83;2153419;83;21145;-78
2020/12/14 02:21:45;;;;;;;33.13;19.47;;;;;;;2.67;71.30;98962.11;2153091;83;21102;-78
2020/12/14 02:24:47;;;;;;;30.50;18.07;;;;;;;2.55;71.54;98959.84;2153215;83;21161;-78
2020/12/14 02:27:48;;;;;;;30.60;17.03;;;;;;;2.41;71.80;98957.45;2148628;82;21542;-78
2020/12/14 02:30:49;;;;;;;32.73;19.90;;;;;;;2.33;72.01;98958.80;2147492;82;21141;-79
2020/12/14 02:33:50;;;;;;;33.37;18.70;;;;;;;5.28;83.36;98954.03;2147381;82;21086;-80
2020/12/14 02:36:51;;;;;;;27.60;16.60;;;;;;;6.58;72.76;98950.03;2147591;82;21129;-79
2020/12/14 02:39:52;;;;;;;31.27;19.67;;;;;;;6.01;67.73;98952.59;2147743;82;21125;-78
2020/12/14 02:42:56;;;;;;;32.07;18.97;;;;;;;4.99;67.10;98950.39;2147803;82;21125;-78
2020/12/14 02:45:57;;;;;;;30.92;18.17;;;;;;;4.31;67.55;98953.89;2147725;82;21114;-78
2020/12/14 02:49:01;;;;;;;31.07;17.33;;;;;;;3.70;68.14;98959.64;2147691;83;21117;-78
2020/12/14 02:52:02;;;;;;;30.57;18.77;;;;;;;3.23;68.87;98961.52;2147445;82;21256;-78
2020/12/14 02:55:05;;;;;;;31.80;17.43;;;;;;;2.84;69.69;98971.87;2147617;82;21141;-78
2020/12/14 02:58:06;;;;;;;29.80;17.37;;;;;;;2.55;70.32;98970.14;2148347;83;21125;-81
2020/12/14 03:01:07;;;;;;;33.00;18.33;;;;;;;2.29;71.07;98960.34;2147497;83;21240;-80
2020/12/14 03:04:11;;;;;;;32.80;19.97;;;;;;;2.12;71.44;98972.44;2147622;82;21244;-81
2020/12/14 03:07:15;;;;;;;33.23;17.93;;;;;;;2.05;71.89;98969.10;2147204;83;21117;-81
2020/12/14 03:10:16;;;;;;;33.27;19.13;;;;;;;2.03;72.18;98978.85;2147608;82;21458;-79
2020/12/14 03:13:17;;;;;;;30.70;17.87;;;;;;;1.97;72.47;98975.98;2147496;82;21112;-79
2020/12/14 03:16:18;;;;;;;32.23;18.67;;;;;;;1.93;72.70;98979.23;2147568;83;21407;-79
2020/12/14 03:19:19;;;;;;;37.40;19.60;;;;;;;1.93;72.95;98977.94;2147757;83;21240;-80
2020/12/14 03:22:20;;;;;;;29.77;16.83;;;;;;;1.93;72.93;98977.94;2147563;83;21244;-79
2020/12/14 03:25:21;;;;;;;31.43;18.03;;;;;;;1.94;73.06;98975.84;2147763;82;21240;-78
2020/12/14 03:28:23;;;;;;;32.77;18.83;;;;;;;1.97;73.18;98973.01;2152926;82;21350;-79
2020/12/14 03:31:24;;;;;;;33.23;19.47;;;;;;;1.99;73.36;98969.22;2153597;83;21636;-80
2020/12/14 03:34:25;;;;;;;33.37;19.23;;;;;;;2.02;73.44;98970.25;2153572;82;21113;-79
2020/12/14 03:37:26;;;;;;;34.27;19.60;;;;;;;2.05;73.52;98968.22;2153645;83;21517;-79
2020/12/14 03:40:27;;;;;;;34.33;18.53;;;;;;;2.05;73.53;98965.65;2153426;83;21240;-80
2020/12/14 03:43:28;;;;;;;33.00;19.47;;;;;;;2.05;73.65;98963.07;2153739;83;21268;-81
2020/12/14 03:46:31;;;;;;;30.97;17.83;;;;;;;2.02;73.69;98970.25;2153894;83;21125;-78
2020/12/14 03:49:32;;;;;;;32.03;18.07;;;;;;;2.02;73.80;98973.23;2152959;83;21284;-78
2020/12/14 03:52:33;;;;;;;30.97;17.33;;;;;;;1.99;73.68;98966.23;2153806;83;21252;-80
2020/12/14 03:55:34;;;;;;;32.93;18.30;;;;;;;1.94;73.75;98974.15;2153444;83;21109;-79
2020/12/14 03:58:37;;;;;;;32.47;16.57;;;;;;;4.97;83.04;98962.40;2153701;83;21121;-79
2020/12/14 04:01:39;;;;;;;34.67;19.00;;;;;;;5.17;71.21;98964.80;2153373;83;21256;-78
2020/12/14 04:04:40;;;;;;;30.20;17.70;;;;;;;4.27;69.95;98966.64;2153093;83;21228;-84
2020/12/14 04:07:41;;;;;;;36.77;19.17;;;;;;;3.64;70.01;98982.22;2153897;82;21387;-79
2020/12/14 04:10:42;;;;;;;28.83;18.27;;;;;;;3.16;70.49;98984.47;2153179;83;21287;-81
2020/12/14 04:13:43;;;;;;;31.50;18.37;;;;;;;2.91;71.01;98991.95;2152656;83;21254;-79
2020/12/14 04:16:44;;;;;;;30.07;18.30;;;;;;;2.69;71.37;99001.72;2153001;82;21112;-80
2020/12/14 04:19:45;;;;;;;30.57;18.23;;;;;;;2.50;71.60;99008.99;2153055;83;21248;-79
2020/12/14 04:22:46;;;;;;;35.40;19.73;;;;;;;2.30;71.96;99016.20;2153477;83;21231;-80
2020/12/14 04:25:47;;;;;;;32.80;18.90;;;;;;;2.22;72.33;99016.25;2153138;83;21248;-81
2020/12/14 04:28:48;;;;;;;32.50;19.07;;;;;;;2.18;72.64;99004.03;2152796;83;21403;-80
2020/12/14 04:31:49;;;;;;;38.77;22.83;;;;;;;2.10;72.82;99010.52;2152542;83;21295;-80
2020/12/14 04:34:50;;;;;;;30.70;19.10;;;;;;;2.06;73.17;99013.35;2152473;83;21129;-80
2020/12/14 04:37:52;;;;;;;33.90;18.47;;;;;;;2.07;73.24;99018.09;2152092;83;21240;-80
2020/12/14 04:40:53;;;;;;;33.63;19.73;;;;;;;2.04;73.38;99019.23;2152949;83;21450;-82
2020/12/14 04:43:54;;;;;;;30.33;18.23;;;;;;;2.02;73.34;99034.61;2151574;83;21243;-79
2020/12/14 04:46:55;;;;;;;30.50;17.97;;;;;;;1.97;73.67;99033.52;2149906;83;21117;-80
2020/12/14 04:49:56;;;;;;;31.33;18.03;;;;;;;1.96;73.88;99027.00;2150602;83;21157;-80
2020/12/14 04:52:57;;;;;;;33.43;18.90;;;;;;;1.96;73.90;99027.88;2150073;83;21252;-80
2020/12/14 04:55:58;;;;;;;33.00;19.03;;;;;;;1.97;74.00;99026.19;2150246;83;21114;-79
2020/12/14 04:58:59;;;;;;;22.17;12.43;;;;;;;1.99;74.09;99034.47;2149387;83;21281;-84
2020/12/14 05:02:01;;;;;;;32.80;18.37;;;;;;;2.12;76.97;99034.65;2150608;83;21175;-81
2020/12/14 05:05:02;;;;;;;33.83;19.33;;;;;;;5.99;78.04;99032.41;2150395;82;21121;-81
2020/12/14 05:08:04;;;;;;;32.67;18.73;;;;;;;5.91;69.56;99043.81;2150904;83;21129;-80
2020/12/14 05:11:05;;;;;;;32.83;20.07;;;;;;;5.08;68.52;99056.80;2150767;83;21608;-81
2020/12/14 05:14:06;;;;;;;29.93;19.17;;;;;;;4.39;68.59;99068.81;2151095;83;21604;-80
2020/12/14 05:17:07;;;;;;;31.33;20.33;;;;;;;3.91;69.01;99069.38;2150790;83;21239;-80
2020/12/14 05:20:08;;;;;;;45.63;22.43;;;;;;;3.54;69.48;99082.44;2150653;83;21703;-82
2020/12/14 05:23:09;;;;;;;41.03;24.63;;;;;;;3.24;70.08;99089.28;2150946;83;21616;-81
2020/12/14 05:26:12;;;;;;;47.03;25.10;;;;;;;3.01;70.40;99091.23;2150459;83;21263;-81
2020/12/14 05:29:13;;;;;;;45.23;25.63;;;;;;;2.82;70.95;99098.54;2144817;82;21439;-82
2020/12/14 05:32:16;;;;;;;37.30;22.97;;;;;;;2.68;71.35;99095.33;2145097;82;21252;-81
2020/12/14 05:35:17;;;;;;;40.10;25.13;;;;;;;2.55;71.69;99095.53;2144938;83;21237;-80
2020/12/14 05:38:18;;;;;;;41.40;25.50;;;;;;;2.50;71.95;99095.72;2144868;82;21077;-80
2020/12/14 05:41:19;;;;;;;45.33;26.97;;;;;;;2.48;72.11;99097.34;2145187;83;21240;-80
2020/12/14 05:44:20;;;;;;;47.47;28.03;;;;;;;2.42;72.24;99103.48;2144849;82;21240;-79
2020/12/14 05:47:21;;;;;;;49.03;27.20;;;;;;;2.41;72.46;99101.31;2144932;82;21106;-81
2020/12/14 05:50:22;;;;;;;46.13;27.67;;;;;;;2.41;72.53;99104.30;2144686;83;21168;-80
2020/12/14 05:53:23;;;;;;;47.33;26.83;;;;;;;2.38;72.80;99102.46;2144496;82;21149;-79
2020/12/14 05:56:24;;;;;;;53.07;29.90;;;;;;;2.37;72.74;99106.25;2144881;82;21105;-81
2020/12/14 05:59:25;;;;;;;44.13;24.37;;;;;;;2.34;72.90;99117.29;2144326;83;21268;-80
2020/12/14 06:02:27;;;;;;;46.10;25.87;;;;;;;2.32;72.89;99120.20;2143943;82;21113;-79
2020/12/14 06:05:28;;;;;;;49.87;28.07;;;;;;;2.30;72.91;99126.97;2144641;83;21842;-80
2020/12/14 06:08:29;;;;;;;50.20;28.53;;;;;;;2.26;72.90;99123.77;2144888;82;21248;-80
2020/12/14 06:11:30;;;;;;;46.30;26.63;;;;;;;2.29;73.14;99118.76;2144902;83;21280;-78
2020/12/14 06:14:31;;;;;;;43.30;26.77;;;;;;;2.28;73.30;99127.30;2144362;82;21255;-77
2020/12/14 06:17:32;;;;;;;49.63;27.73;;;;;;;2.28;73.40;99124.72;2144285;82;21427;-78
2020/12/14 06:20:33;;;;;;;54.93;29.83;;;;;;;2.24;73.44;99129.25;2143782;83;21119;-78
2020/12/14 06:23:34;;;;;;;44.90;25.80;;;;;;;2.18;73.50;99132.81;2144870;82;21248;-78
2020/12/14 06:26:35;;;;;;;48.03;26.60;;;;;;;2.18;73.66;99136.67;2144643;82;21113;-80
2020/12/14 06:29:36;;;;;;;49.43;26.20;;;;;;;2.18;73.75;99128.94;2150799;83;21177;-80
2020/12/14 06:32:38;;;;;;;48.87;26.10;;;;;;;2.18;73.74;99123.39;2150930;83;21260;-79
2020/12/14 06:35:41;;;;;;;49.97;29.50;;;;;;;3.62;79.23;99125.83;2150464;83;21283;-77
2020/12/14 06:38:42;;;;;;;60.33;34.43;;;;;;;4.14;72.47;99120.30;2150995;83;21399;-80
2020/12/14 06:41:43;;;;;;;58.73;32.33;;;;;;;3.63;71.40;99124.13;2150013;83;21109;-80
2020/12/14 06:44:44;;;;;;;47.03;27.27;;;;;;;3.24;71.35;99134.42;2150948;83;21099;-80
2020/12/14 06:47:45;;;;;;;46.67;28.50;;;;;;;2.96;71.60;99139.14;2150331;83;21236;-79
2020/12/14 06:50:46;;;;;;;49.73;28.57;;;;;;;2.75;72.04;99137.73;2150672;83;21335;-78
2020/12/14 06:53:47;;;;;;;49.87;26.10;;;;;;;2.63;72.40;99146.18;2150514;82;21601;-78
2020/12/14 06:56:49;;;;;;;48.40;26.27;;;;;;;2.53;72.58;99144.42;2151225;82;21131;-80
2020/12/14 06:59:50;;;;;;;43.33;26.53;;;;;;;2.47;72.72;99148.39;2150475;83;21146;-79
2020/12/14 07:02:51;;;;;;;50.37;27.60;;;;;;;2.41;72.75;99151.55;2151204;82;21273;-77
2020/12/14 07:05:52;;;;;;;57.17;32.87;;;;;;;2.39;72.99;99159.61;2150325;83;21105;-77
2020/12/14 07:08:53;;;;;;;45.40;27.43;;;;;;;2.37;73.13;99161.23;2149453;83;21175;-78
2020/12/14 07:11:54;;;;;;;51.83;28.43;;;;;;;2.36;73.21;99162.45;2150675;82;21276;-77
2020/12/14 07:14:57;;;;;;;50.77;27.90;;;;;;;2.33;73.31;99164.47;2149776;83;21450;-79
2020/12/14 07:17:58;;;;;;;47.80;26.87;;;;;;;2.30;73.33;99171.16;2150152;83;21141;-81
2020/12/14 07:21:06;;;;;;;50.00;26.47;;;;;;;2.23;73.42;99166.11;2150931;83;21145;-80
2020/12/14 07:24:04;;;;;;;51.53;28.10;;;;;;;2.21;73.54;99165.16;2151176;82;21129;-81
2020/12/14 07:27:05;;;;;;;50.70;28.30;;;;;;;2.22;73.73;99165.23;2150187;82;21224;-80
2020/12/14 07:30:06;;;;;;;56.93;29.57;;;;;;;2.21;73.67;99162.17;2144756;82;21161;-79
2020/12/14 07:33:07;;;;;;;51.13;28.23;;;;;;;2.21;73.90;99160.89;2144117;82;21267;-80
2020/12/14 07:36:08;;;;;;;54.63;28.07;;;;;;;2.24;73.81;99166.19;2144121;83;21089;-79
2020/12/14 07:39:10;;;;;;;59.40;29.73;;;;;;;2.27;73.96;99167.14;2144605;83;21267;-80
2020/12/14 07:42:11;;;;;;;52.23;28.83;;;;;;;2.27;73.95;99169.72;2143988;82;21883;-78
2020/12/14 07:45:12;;;;;;;55.37;30.63;;;;;;;2.29;73.86;99172.86;2144080;82;21109;-78
2020/12/14 07:48:13;;;;;;;56.80;28.60;;;;;;;2.28;73.99;99176.23;2144684;82;21248;-79
2020/12/14 07:51:14;;;;;;;56.63;27.70;;;;;;;2.30;74.09;99182.75;2144115;82;21278;-81
2020/12/14 07:54:15;;;;;;;53.10;28.27;;;;;;;2.33;73.95;99182.50;2145125;83;21116;-79
2020/12/14 07:57:26;;;;;;;50.40;29.10;;;;;;;2.41;73.96;99194.06;2144871;82;21248;-80
2020/12/14 08:00:19;;;;;;;56.53;31.03;;;;;;;2.44;73.89;99196.80;2143308;83;21605;-80
2020/12/14 08:03:22;;;;;;;55.47;26.07;;;;;;;2.45;73.83;99194.70;2143822;82;21264;-78
2020/12/14 08:06:23;;;;;;;49.00;26.90;;;;;;;2.49;73.79;99195.73;2144764;83;21244;-79
2020/12/14 08:09:24;;;;;;;55.70;28.77;;;;;;;2.48;73.75;99200.41;2144283;82;21291;-79
2020/12/14 08:12:25;;;;;;;50.20;28.87;;;;;;;2.47;73.78;99202.09;2144080;83;21236;-78
2020/12/14 08:15:27;;;;;;;53.30;28.10;;;;;;;2.49;73.79;99198.31;2144194;82;21475;-79
2020/12/14 08:18:28;;;;;;;50.80;29.07;;;;;;;2.54;73.76;99204.57;2144744;83;21272;-80
2020/12/14 08:21:29;;;;;;;54.20;31.07;;;;;;;2.54;73.73;99205.45;2144243;82;21314;-78
2020/12/14 08:24:30;;;;;;;56.00;29.97;;;;;;;2.53;73.56;99206.67;2144338;83;21247;-78
2020/12/14 08:27:31;;;;;;;67.27;37.17;;;;;;;2.58;73.58;99200.05;2143971;82;21276;-79
2020/12/14 08:30:32;;;;;;;55.53;31.67;;;;;;;2.59;73.69;99195.77;2143902;82;21284;-79
2020/12/14 08:33:34;;;;;;;51.77;28.70;;;;;;;2.62;73.61;99202.00;2144940;82;21246;-78
2020/12/14 08:36:35;;;;;;;55.97;30.50;;;;;;;2.67;73.54;99200.93;2144675;83;21240;-80
2020/12/14 08:39:36;;;;;;;63.57;32.50;;;;;;;2.69;73.52;99203.17;2144573;83;21243;-79
2020/12/14 08:42:40;;;;;;;68.37;35.33;;;;;;;2.71;73.51;99210.58;2144945;83;21118;-80
2020/12/14 08:45:43;;;;;;;65.33;35.50;;;;;;;2.78;73.59;99208.77;2144918;83;21259;-78
2020/12/14 08:48:44;;;;;;;66.07;34.27;;;;;;;2.90;73.54;99205.90;2144629;82;21241;-78
2020/12/14 08:51:45;;;;;;;70.23;35.23;;;;;;;2.94;73.46;99203.53;2144221;82;21277;-78
2020/12/14 08:54:46;;;;;;;65.20;35.03;;;;;;;2.97;73.31;99202.80;2143592;82;21243;-77
2020/12/14 08:57:47;;;;;;;75.30;35.83;;;;;;;2.95;73.27;99201.44;2143911;82;21272;-79
2020/12/14 09:00:48;;;;;;;58.63;30.83;;;;;;;2.98;73.02;99201.98;2144407;82;21305;-78
2020/12/14 09:03:49;;;;;;;72.73;41.07;;;;;;;2.97;72.88;99193.77;2144097;83;21252;-80
2020/12/14 09:06:50;;;;;;;67.43;35.07;;;;;;;3.02;72.93;99190.59;2143442;83;21260;-78
2020/12/14 09:09:51;;;;;;;60.03;32.90;;;;;;;3.11;72.94;99188.45;2142319;82;21964;-78
2020/12/14 09:12:53;;;;;;;62.90;32.93;;;;;;;3.19;72.90;99183.23;2144123;83;21248;-80
2020/12/14 09:15:54;;;;;;;60.50;33.90;;;;;;;3.20;72.91;99191.86;2144708;82;21260;-79
2020/12/14 09:18:55;;;;;;;62.80;34.17;;;;;;;3.19;72.69;99185.81;2142260;83;21247;-79
2020/12/14 09:21:56;;;;;;;61.70;32.57;;;;;;;3.25;72.85;99184.33;2142947;82;21106;-79
2020/12/14 09:24:57;;;;;;;61.67;32.33;;;;;;;3.33;72.77;99180.41;2142427;83;21145;-79
2020/12/14 09:27:58;;;;;;;56.93;31.07;;;;;;;3.38;72.38;99172.05;2143828;82;21971;-78
2020/12/14 09:31:00;;;;;;;59.87;30.50;;;;;;;3.38;72.10;99163.43;2142968;83;21109;-78
2020/12/14 09:34:01;;;;;;;67.30;32.53;;;;;;;3.39;72.47;99162.20;2143374;82;21287;-78
2020/12/14 09:37:02;;;;;;;67.57;33.47;;;;;;;3.50;72.30;99168.77;2143803;82;21261;-79
2020/12/14 09:40:03;;;;;;;63.40;34.37;;;;;;;3.52;72.25;99171.41;2144034;82;21248;-78
2020/12/14 09:43:04;;;;;;;57.50;32.27;;;;;;;3.57;72.24;99177.66;2143465;83;21277;-79
2020/12/14 09:46:05;;;;;;;66.17;34.73;;;;;;;3.56;72.11;99170.73;2143793;82;21179;-78
2020/12/14 09:49:06;;;;;;;57.00;30.90;;;;;;;3.59;72.11;99166.12;2144234;82;21243;-80
2020/12/14 09:52:08;;;;;;;56.90;30.73;;;;;;;3.62;71.91;99162.37;2143663;82;21307;-77
2020/12/14 09:55:09;;;;;;;73.60;33.90;;;;;;;3.64;71.84;99168.49;2144432;82;21240;-79
2020/12/14 09:58:10;;;;;;;64.50;31.53;;;;;;;3.64;71.74;99173.25;2144681;82;21114;-78
2020/12/14 10:01:11;;;;;;;79.00;35.30;;;;;;;3.66;71.69;99172.91;2143910;82;21129;-77
2020/12/14 10:04:12;;;;;;;70.10;35.77;;;;;;;3.66;71.75;99173.31;2143349;82;21287;-78
2020/12/14 10:07:13;;;;;;;68.63;30.57;;;;;;;3.68;71.86;99162.65;2143321;82;21252;-78
2020/12/14 10:10:15;;;;;;;59.23;29.70;;;;;;;3.71;71.46;99161.49;2143775;83;21284;-77
2020/12/14 10:13:16;;;;;;;64.97;32.30;;;;;;;3.71;71.55;99166.25;2143943;83;21268;-78
2020/12/14 10:16:18;;;;;;;60.30;32.60;;;;;;;3.71;71.69;99166.25;2143921;82;21082;-78
2020/12/14 10:19:19;;;;;;;67.93;32.97;;;;;;;3.75;71.53;99169.44;2143786;82;21260;-78
2020/12/14 10:22:20;;;;;;;62.20;32.10;;;;;;;3.73;71.43;99167.20;2142986;82;21086;-77
2020/12/14 10:25:24;;;;;;;78.10;35.20;;;;;;;3.76;71.57;99161.28;2143217;82;21130;-79
2020/12/14 10:28:24;;;;;;;59.20;31.93;;;;;;;3.80;71.61;99174.39;2145485;82;21298;-77
2020/12/14 10:31:25;;;;;;;57.23;32.97;;;;;;;3.87;71.42;99168.20;2149302;83;21145;-78
2020/12/14 10:34:30;;;;;;;62.17;33.07;;;;;;;3.89;71.33;99170.45;2149684;83;21287;-78
2020/12/14 10:37:31;;;;;;;58.85;33.53;;;;;;;3.92;71.30;99165.41;2149032;83;21224;-77
2020/12/14 10:40:32;;;;;;;57.63;32.23;;;;;;;3.93;71.35;99169.35;2149085;83;21252;-78
2020/12/14 10:43:33;;;;;;;65.03;36.20;;;;;;;3.92;71.03;99175.74;2149444;82;21239;-78
2020/12/14 10:46:34;;;;;;;61.47;33.10;;;;;;;3.88;71.26;99177.31;2149977;83;21375;-79
2020/12/14 10:49:36;;;;;;;58.43;32.87;;;;;;;3.94;71.27;99170.23;2149374;83;21180;-78
2020/12/14 10:52:37;;;;;;;61.67;33.57;;;;;;;3.97;71.11;99167.78;2149880;83;21140;-78
2020/12/14 10:55:38;;;;;;;57.53;31.30;;;;;;;3.96;71.20;99163.44;2149579;83;21198;-77
2020/12/14 10:58:39;;;;;;;63.17;33.83;;;;;;;4.01;71.16;99160.64;2149557;83;21272;-76
2020/12/14 11:01:40;;;;;;;60.70;32.37;;;;;;;4.04;71.09;99156.48;2148508;83;21276;-77
2020/12/14 11:04:44;;;;;;;55.67;30.27;;;;;;;4.11;71.03;99159.80;2150703;82;21255;-77
2020/12/14 11:07:45;;;;;;;67.57;34.10;;;;;;;4.09;70.69;99158.85;2150405;83;21244;-77
2020/12/14 11:10:46;;;;;;;69.30;34.20;;;;;;;4.10;70.89;99155.86;2150436;83;21157;-77
2020/12/14 11:13:48;;;;;;;67.27;36.90;;;;;;;4.07;70.59;99148.86;2150464;83;21121;-77
2020/12/14 11:16:49;;;;;;;60.57;34.20;;;;;;;3.97;70.81;99146.71;2150937;82;21082;-77
2020/12/14 11:19:50;;;;;;;67.67;36.37;;;;;;;4.00;70.72;99142.08;2150028;83;21113;-78
2020/12/14 11:22:51;;;;;;;97.37;54.23;;;;;;;3.98;71.28;99154.05;2150370;83;21252;-78
2020/12/14 11:25:52;;;;;;;61.40;35.37;;;;;;;3.95;71.24;99160.38;2149763;83;21117;-76
2020/12/14 11:28:54;;;;;;;63.13;33.90;;;;;;;3.93;70.97;99164.59;2148114;82;21280;-78
2020/12/14 11:31:55;;;;;;;61.87;33.67;;;;;;;3.91;71.18;99161.95;2144428;83;21304;-77
2020/12/14 11:34:56;;;;;;;67.07;33.70;;;;;;;3.95;71.13;99164.25;2143324;82;21122;-77
2020/12/14 11:37:57;;;;;;;65.13;34.53;;;;;;;3.98;71.24;99169.55;2143857;82;21357;-77
2020/12/14 11:40:58;;;;;;;59.53;32.50;;;;;;;4.05;71.19;99172.87;2143877;82;21263;-79
2020/12/14 11:43:59;;;;;;;54.07;31.83;;;;;;;4.07;70.91;99168.23;2144275;83;21263;-78
2020/12/14 11:47:00;;;;;;;57.17;30.37;;;;;;;4.10;70.62;99159.33;2144113;83;21264;-78
2020/12/14 11:50:01;;;;;;;57.47;31.00;;;;;;;4.09;70.48;99163.13;2144076;83;21327;-79
2020/12/14 11:53:02;;;;;;;58.53;31.73;;;;;;;4.06;70.90;99169.47;2144057;82;21329;-80
2020/12/14 11:56:03;;;;;;;55.03;31.27;;;;;;;4.06;70.65;99173.34;2143614;82;21376;-78
2020/12/14 11:59:04;;;;;;;61.90;32.50;;;;;;;4.03;70.75;99174.50;2143796;82;21583;-78
2020/12/14 12:02:05;;;;;;;59.37;33.73;;;;;;;4.02;70.63;99174.91;2143977;82;21236;-78
2020/12/14 12:05:06;;;;;;;61.17;34.00;;;;;;;3.98;70.80;99173.02;2143715;82;21482;-78
2020/12/14 12:08:08;;;;;;;66.10;34.60;;;;;;;3.95;70.84;99172.88;2143866;83;21244;-78
2020/12/14 12:11:09;;;;;;;60.73;33.80;;;;;;;3.96;70.92;99177.64;2143920;82;21342;-80
2020/12/14 12:14:10;;;;;;;62.30;33.63;;;;;;;3.92;71.11;99173.16;2142657;82;21189;-78
2020/12/14 12:17:11;;;;;;;60.20;33.17;;;;;;;3.95;71.34;99166.83;2143589;82;21545;-79
2020/12/14 12:20:12;;;;;;;59.63;33.57;;;;;;;3.93;71.18;99171.05;2143821;82;21133;-80
2020/12/14 12:23:13;;;;;;;62.20;31.93;;;;;;;3.99;71.14;99157.99;2143189;83;21873;-78
2020/12/14 12:26:14;;;;;;;63.20;33.33;;;;;;;4.55;72.39;99150.44;2143228;82;21252;-79
2020/12/14 12:29:16;;;;;;;65.67;33.53;;;;;;;4.63;70.64;99150.34;2144761;82;21981;-78
2020/12/14 12:32:17;;;;;;;64.03;34.97;;;;;;;4.50;70.16;99144.61;2149496;83;21276;-79
2020/12/14 12:35:18;;;;;;;66.93;34.73;;;;;;;4.35;69.92;99138.41;2149791;83;21133;-78
2020/12/14 12:38:19;;;;;;;61.07;32.67;;;;;;;4.23;70.25;99139.17;2149202;83;21255;-78
2020/12/14 12:41:20;;;;;;;72.80;37.87;;;;;;;4.14;70.44;99147.01;2148707;83;21231;-78
2020/12/14 12:44:22;;;;;;;74.17;37.97;;;;;;;4.07;70.70;99142.81;2149773;83;21144;-78
2020/12/14 12:47:23;;;;;;;63.30;34.50;;;;;;;3.99;70.67;99146.77;2149349;83;21306;-78
2020/12/14 12:50:24;;;;;;;73.60;36.50;;;;;;;3.93;70.75;99148.69;2150024;82;21283;-79
2020/12/14 12:53:25;;;;;;;71.67;37.47;;;;;;;3.83;70.78;99141.36;2150676;83;21252;-78
2020/12/14 12:56:26;;;;;;;77.63;42.40;;;;;;;3.76;70.96;99133.77;2149616;83;21098;-78
2020/12/14 12:59:27;;;;;;;67.27;34.57;;;;;;;3.69;71.15;99136.90;2149907;83;21271;-78
2020/12/14 13:02:28;;;;;;;67.17;34.27;;;;;;;3.66;71.21;99136.77;2149496;83;21129;-79
2020/12/14 13:05:29;;;;;;;67.70;36.80;;;;;;;3.56;71.24;99144.92;2148055;82;21244;-78
2020/12/14 13:12:23;;;;;;;69.93;39.60;;;;;;;3.52;71.66;99152.05;2252736;77;31718;-80
2020/12/14 13:15:25;;;;;;;72.25;41.25;;;;;;;3.74;71.10;99153.88;2247983;78;28260;-78
2020/12/14 13:18:26;;;;;;;67.80;36.60;;;;;;;4.02;70.62;99155.53;2270179;78;21105;-78
2020/12/14 13:21:27;;;;;;;72.37;35.47;;;;;;;3.75;70.74;99156.53;2268867;78;21341;-78
2020/12/14 13:24:28;;;;;;;65.87;33.90;;;;;;;3.58;71.12;99162.66;2270654;78;21417;-78
2020/12/14 13:27:29;;;;;;;68.40;34.63;;;;;;;3.41;71.39;99157.12;2270559;78;21230;-79
2020/12/14 13:30:30;;;;;;;72.90;36.83;;;;;;;3.27;71.62;99167.22;2268984;78;21959;-79
2020/12/14 13:33:31;;;;;;;69.20;33.73;;;;;;;3.14;71.89;99169.24;2269532;78;21289;-80
2020/12/14 13:36:32;;;;;;;74.07;37.37;;;;;;;3.03;72.34;99165.28;2268803;78;21113;-79
2020/12/14 13:39:33;;;;;;;98.10;51.20;;;;;;;2.94;72.35;99170.02;2268576;78;21829;-79
2020/12/14 13:42:34;;;;;;;74.23;34.97;;;;;;;2.89;72.79;99171.49;2269566;78;21239;-78
2020/12/14 13:45:38;;;;;;;66.57;32.90;;;;;;;2.83;72.81;99173.78;2269390;78;21120;-79
2020/12/14 13:48:39;;;;;;;77.03;34.80;;;;;;;2.69;72.99;99165.80;2269995;78;21223;-78
2020/12/14 13:51:40;;;;;;;72.53;35.83;;;;;;;2.60;73.21;99170.11;2270001;78;21837;-78
2020/12/14 13:54:41;;;;;;;74.67;36.40;;;;;;;2.53;73.47;99170.59;2268755;78;21259;-76
2020/12/14 13:57:43;;;;;;;69.67;35.23;;;;;;;2.48;73.69;99169.08;2269592;78;21244;-78
2020/12/14 14:00:44;;;;;;;75.43;35.60;;;;;;;2.48;73.84;99167.80;2268750;78;21565;-77
2020/12/14 14:03:45;;;;;;;72.13;35.93;;;;;;;2.36;73.93;99168.48;2268875;78;21236;-77
2020/12/14 14:06:46;;;;;;;67.77;34.83;;;;;;;2.26;74.18;99171.41;2268040;78;21211;-77